Itupiranga, Brazil
Current Conditions -  °F | °C
As of 5:00 PM on Monday 24 Nov 2014 (Local Time) from SBMA Reporting Station
Few Clouds Few Clouds  
Wind Chill: 90°   Ceiling: Unl
Heat Index: 96°   Visibility: 6mi
Dew Point: 72°   Wind: 6mph
Humidity: 55%   Direction: 100°E
Pressure: 29.8"   Gusts: NA
Location:  5.13°S, 49.33°W
Report Text: SBMA 242000Z 10005KT 9999 FEW025 32/22 Q1009
Loading
Personal Weather Stations






























Interactive Weather Map New forecast layout! Learn more

10-Day Weather Forecast

Advertisements
Track Severe Weather on mobile